Warren, MA (01083)

8:52 AM EST on December 28, 2014 (GMT -0500)
Old Bemis Farm | Change Station
CLOSE
Current Station
Personal Weather Station
Location: West Brookfield, MA
Elevation: 823 ft
Nearby Weather Stations

Elev 823 ft 42.18 °N, 72.19 °W | Updated 7 minutes ago

Rain
Rain
41.0 °F
Feels Like 41 °F
N
2.0
Wind Variable Wind from West

Today
High -- | Low -- °F
--% Chance of Precip.
Yesterday
High -- | Low -- °F
Precip. -- in
7:16 AM 4:24 PM
Waxing Crescent, 48% visible
Pressure 29.84 in
Visibility 10.0 miles
Clouds Mostly Cloudy 8000 ft
Overcast 10000 ft
Windchill 41 °F
Dew Point 41 °F
Humidity 99%
Rainfall 0.07 in
Snow Depth Not available.
UV 0 out of 12
Pollen .10 out of 12
Air Quality Not available.
Flu Activity Not available.
METAR KORH 281254Z 25014KT 10SM -RA BKN080 OVC100 06/02 A2981 RMK AO2 RAB28 SLP104 P0000 T00560022

More Conditions Fewer Conditions

Pressure 29.84 in
Visibility 10.0 miles
Clouds Mostly Cloudy 8000 ft
Overcast 10000 ft
Windchill 41 °F
Dew Point 41 °F
Humidity 99%
Rainfall 0.07 in
Snow Depth Not available.
UV 0 out of 12
Pollen .10 out of 12
Air Quality Not available.
Flu Activity Not available.
METAR KORH 281254Z 25014KT 10SM -RA BKN080 OVC100 06/02 A2981 RMK AO2 RAB28 SLP104 P0000 T00560022

More Conditions Fewer Conditions

10-Day Weather Forecast

Almanac

Astronomy

Dec. 28, 2014 Rise Set
Actual Time
Civil Twilight
Nautical Twilight
Astronomical Twilight
Moon
Length of Visible Light
Length of Day
Tomorrow will be .
, % of the Moon is Illuminated

Today's Extremes

State Highs State Lows

Community

WunderPhotos

Upload Photos

1,781,262 photos uploaded!

WunderBlogs® & News

Nearby

Air Quality

  Air Quality AQ Index Pollutant
Not available.

Snow Depth

Station Depth Elevation

Earthquake Activity

City Distance Mag. Time & Date
Minimum magnitude displayed is 2.5.

Coastal Water Temperatures

Place Temperature

Nearby Weather Stations